createdAt,value
2022-08-17T00:02:26.502Z,64.67
2022-08-17T00:05:31.972Z,64.69
2022-08-17T00:08:40.975Z,64.39
2022-08-17T00:12:42.177Z,65.27
2022-08-17T00:15:11.002Z,65.27
2022-08-17T00:19:06.041Z,64.64
2022-08-17T00:22:32.785Z,64.40
2022-08-17T00:25:03.785Z,64.39
2022-08-17T00:28:07.109Z,64.66
2022-08-17T00:31:11.654Z,65.18
2022-08-17T00:34:14.455Z,65.35
2022-08-17T00:37:17.268Z,65.54
2022-08-17T00:40:22.119Z,65.14
2022-08-17T00:43:32.685Z,65.19
2022-08-17T00:46:39.301Z,65.71
2022-08-17T00:49:42.109Z,65.72
2022-08-17T00:52:51.991Z,65.77
2022-08-17T00:55:56.561Z,65.72
2022-08-17T00:58:59.620Z,66.47
2022-08-17T01:02:03.394Z,67.37
2022-08-17T01:05:08.625Z,67.14
2022-08-17T01:08:14.600Z,67.33
2022-08-17T01:11:19.750Z,67.03
2022-08-17T01:14:24.144Z,67.21
2022-08-17T01:17:28.968Z,67.09
2022-08-17T01:20:32.466Z,68.13
2022-08-17T01:23:53.156Z,67.88
2022-08-17T01:26:56.704Z,67.74
2022-08-17T01:30:56.963Z,67.96
2022-08-17T01:33:30.250Z,67.92
2022-08-17T01:36:32.942Z,67.90
2022-08-17T01:39:42.064Z,67.99
2022-08-17T01:42:47.923Z,68.06
2022-08-17T01:46:02.645Z,68.70
2022-08-17T01:49:08.723Z,68.39
2022-08-17T01:52:13.157Z,69.12
2022-08-17T01:55:25.856Z,69.43
2022-08-17T01:58:29.980Z,69.14
2022-08-17T02:01:34.716Z,69.17
2022-08-17T02:04:37.700Z,68.90
2022-08-17T02:07:59.383Z,68.88
2022-08-17T02:11:11.178Z,68.92
2022-08-17T02:14:15.573Z,69.75
2022-08-17T02:17:18.452Z,69.61
2022-08-17T02:20:41.620Z,69.86
2022-08-17T02:23:49.512Z,70.15
2022-08-17T02:26:53.693Z,71.07
2022-08-17T02:29:56.361Z,71.42
2022-08-17T02:32:59.152Z,71.18
2022-08-17T02:36:08.909Z,71.58
2022-08-17T02:39:13.788Z,71.96
2022-08-17T02:42:18.414Z,71.95
2022-08-17T02:45:24.209Z,72.89
2022-08-17T02:48:30.541Z,72.39
2022-08-17T02:51:35.288Z,72.63
2022-08-17T02:54:42.280Z,72.62
2022-08-17T02:57:46.828Z,73.36
2022-08-17T03:00:49.731Z,73.29
2022-08-17T03:03:52.417Z,73.39
2022-08-17T03:06:55.206Z,73.48
2022-08-17T03:09:57.875Z,72.84
2022-08-17T03:13:02.503Z,72.57
2022-08-17T03:16:05.630Z,72.29
2022-08-17T03:19:08.301Z,72.29
2022-08-17T03:22:35.864Z,72.53
2022-08-17T03:25:36.696Z,72.70
2022-08-17T03:28:42.850Z,72.74
2022-08-17T03:31:45.826Z,72.31
2022-08-17T03:34:49.066Z,72.26
2022-08-17T03:38:00.117Z,72.16
2022-08-17T03:41:06.132Z,71.85
2022-08-17T03:44:10.474Z,72.30
2022-08-17T03:47:30.699Z,72.13
2022-08-17T03:50:51.043Z,72.32
2022-08-17T03:54:16.789Z,73.05
2022-08-17T03:57:20.479Z,72.92
2022-08-17T04:00:24.558Z,72.33
2022-08-17T04:03:27.429Z,72.78
2022-08-17T04:06:30.110Z,73.03
2022-08-17T04:09:33.022Z,72.84
2022-08-17T04:12:45.408Z,73.21
2022-08-17T04:15:49.463Z,72.74
2022-08-17T04:18:53.920Z,72.67
2022-08-17T04:21:57.749Z,73.70
2022-08-17T04:25:01.285Z,73.34
2022-08-17T04:28:05.588Z,72.96
2022-08-17T04:31:18.861Z,72.38
2022-08-17T04:34:21.543Z,72.19
2022-08-17T04:37:24.206Z,72.69
2022-08-17T04:40:46.305Z,72.88
2022-08-17T04:43:50.400Z,73.58
2022-08-17T04:46:54.400Z,72.85
2022-08-17T04:50:00.896Z,71.92
2022-08-17T04:53:04.407Z,70.54
2022-08-17T04:56:07.865Z,69.56
2022-08-17T04:59:17.301Z,68.27
2022-08-17T05:02:21.447Z,66.90
2022-08-17T05:05:26.590Z,65.54
2022-08-17T05:08:29.888Z,63.51
2022-08-17T05:11:32.672Z,62.07
2022-08-17T05:14:35.464Z,62.57
2022-08-17T05:17:39.506Z,60.81
2022-08-17T05:20:42.812Z,60.09
2022-08-17T05:23:50.314Z,60.19
2022-08-17T05:27:01.370Z,60.79
2022-08-17T05:30:09.008Z,61.19
2022-08-17T05:33:16.522Z,61.69
2022-08-17T05:36:43.150Z,61.48
2022-08-17T05:39:41.885Z,61.09
2022-08-17T05:42:45.066Z,60.91
2022-08-17T05:45:56.138Z,62.15
2022-08-17T05:49:03.675Z,63.86
2022-08-17T05:52:21.741Z,64.25
2022-08-17T05:55:33.849Z,65.03
2022-08-17T05:58:46.815Z,65.24
2022-08-17T06:01:57.832Z,64.34
2022-08-17T06:05:17.952Z,62.84
2022-08-17T06:08:30.540Z,62.47
2022-08-17T06:11:40.848Z,62.15
2022-08-17T06:14:58.384Z,62.90
2022-08-17T06:18:03.990Z,63.03
2022-08-17T06:21:14.313Z,61.87
2022-08-17T06:24:27.436Z,59.95
2022-08-17T06:27:35.808Z,61.54
2022-08-17T06:30:59.238Z,60.03
2022-08-17T06:34:05.642Z,58.42
2022-08-17T06:37:23.995Z,54.19
2022-08-17T06:40:55.267Z,55.31
2022-08-17T06:44:10.781Z,53.56
2022-08-17T06:47:28.609Z,52.70
2022-08-17T06:50:36.730Z,51.39
2022-08-17T06:53:45.639Z,49.34
2022-08-17T06:56:55.346Z,47.55
2022-08-17T07:00:02.237Z,45.09
2022-08-17T07:03:15.676Z,42.34
2022-08-17T07:06:21.835Z,39.85
2022-08-17T07:09:31.827Z,37.81
2022-08-17T07:12:40.067Z,35.74
2022-08-17T07:15:44.194Z,33.91
2022-08-17T07:18:50.622Z,32.98
2022-08-17T07:21:57.309Z,32.10
2022-08-17T07:25:05.267Z,34.61
2022-08-17T07:28:08.999Z,32.79
2022-08-17T07:31:14.116Z,31.38
2022-08-17T07:34:16.890Z,30.08
2022-08-17T07:37:20.774Z,30.09
2022-08-17T07:40:33.430Z,31.30
2022-08-17T07:43:37.926Z,29.68
2022-08-17T07:47:08.474Z,29.32
2022-08-17T07:50:27.592Z,31.98
2022-08-17T07:53:32.063Z,30.63
2022-08-17T07:56:45.724Z,31.14
2022-08-17T08:00:16.814Z,30.76
2022-08-17T08:03:26.145Z,30.13
2022-08-17T08:06:29.128Z,29.17
2022-08-17T08:09:35.944Z,30.67
2022-08-17T08:12:42.055Z,30.20
2022-08-17T08:15:53.636Z,29.97
2022-08-17T08:18:59.807Z,29.09
2022-08-17T08:22:07.793Z,29.61
2022-08-17T08:25:28.742Z,29.27
2022-08-17T08:28:43.487Z,29.00
2022-08-17T08:31:58.730Z,28.56
2022-08-17T08:35:07.642Z,27.37
2022-08-17T08:38:22.313Z,28.33
2022-08-17T08:41:38.425Z,28.26
2022-08-17T08:45:00.602Z,28.46
2022-08-17T08:48:53.912Z,27.47
2022-08-17T08:51:55.752Z,26.56
2022-08-17T08:55:07.514Z,25.35
2022-08-17T08:58:31.759Z,26.59
2022-08-17T09:01:59.762Z,24.63
2022-08-17T09:05:15.473Z,24.51
2022-08-17T09:08:41.078Z,24.77
2022-08-17T09:12:02.498Z,22.80
2022-08-17T09:15:13.139Z,23.99
2022-08-17T09:18:59.348Z,22.84
2022-08-17T09:21:52.687Z,24.64
2022-08-17T09:25:01.029Z,24.16
2022-08-17T09:28:07.250Z,23.81
2022-08-17T09:31:16.043Z,22.83
2022-08-17T09:34:31.944Z,24.19
2022-08-17T09:37:44.127Z,25.08
2022-08-17T09:40:52.536Z,24.29
2022-08-17T09:44:01.030Z,23.86
2022-08-17T09:47:11.250Z,23.95
2022-08-17T09:50:20.173Z,25.34
2022-08-17T09:53:44.738Z,23.78
2022-08-17T09:57:28.042Z,23.45
2022-08-17T10:00:28.016Z,24.05
2022-08-17T10:03:43.554Z,24.12
2022-08-17T10:06:54.219Z,23.93
2022-08-17T10:10:04.503Z,24.14
2022-08-17T10:13:19.688Z,24.04
2022-08-17T10:16:36.240Z,23.26
2022-08-17T10:19:43.988Z,22.78
2022-08-17T10:23:12.129Z,23.18
2022-08-17T10:26:25.049Z,22.33
2022-08-17T10:29:40.769Z,23.32
2022-08-17T10:32:56.054Z,23.63
2022-08-17T10:36:10.563Z,24.09
2022-08-17T10:39:28.459Z,22.56
2022-08-17T10:42:36.325Z,23.98
2022-08-17T10:45:49.510Z,22.51
2022-08-17T10:49:29.521Z,21.85
2022-08-17T10:52:52.511Z,22.46
2022-08-17T10:56:23.197Z,23.47
2022-08-17T10:59:50.865Z,22.42
2022-08-17T11:02:55.595Z,22.26
2022-08-17T11:06:12.654Z,22.38
2022-08-17T11:09:32.525Z,23.38
2022-08-17T11:12:42.205Z,20.43
2022-08-17T11:16:08.103Z,21.48
2022-08-17T11:19:31.661Z,20.81
2022-08-17T11:23:00.202Z,20.42
2022-08-17T11:26:08.560Z,20.03
2022-08-17T11:29:24.619Z,20.47
2022-08-17T11:32:37.124Z,20.77
2022-08-17T11:35:49.515Z,21.12
2022-08-17T11:39:00.698Z,21.09
2022-08-17T11:42:12.577Z,20.83
2022-08-17T11:45:35.097Z,21.72
2022-08-17T11:49:01.274Z,21.00
2022-08-17T11:52:35.179Z,22.11
2022-08-17T11:56:04.191Z,23.41
2022-08-17T11:59:54.991Z,23.17
2022-08-17T12:03:36.821Z,22.33
2022-08-17T12:06:51.154Z,22.19
2022-08-17T12:09:54.224Z,23.75
2022-08-17T12:12:57.275Z,23.20
2022-08-17T12:16:00.583Z,22.30
2022-08-17T12:19:05.176Z,24.44
2022-08-17T12:22:18.378Z,24.23
2022-08-17T12:25:25.315Z,24.15
2022-08-17T12:28:30.267Z,24.52
2022-08-17T12:31:37.173Z,23.61
2022-08-17T12:34:43.025Z,24.27
2022-08-17T12:37:50.626Z,24.62
2022-08-17T12:40:57.892Z,25.25
2022-08-17T12:44:03.375Z,26.03
2022-08-17T12:47:21.071Z,26.73
2022-08-17T12:50:29.596Z,27.26
2022-08-17T12:53:36.001Z,27.71
2022-08-17T12:56:39.183Z,28.44
2022-08-17T12:59:45.222Z,28.37
2022-08-17T13:02:52.354Z,28.23
2022-08-17T13:05:59.037Z,27.10
2022-08-17T13:09:12.784Z,26.35
2022-08-17T13:12:15.410Z,26.13
2022-08-17T13:15:25.142Z,25.88
2022-08-17T13:18:46.850Z,27.15
2022-08-17T13:21:53.416Z,27.89
2022-08-17T13:25:00.797Z,27.55
2022-08-17T13:28:03.766Z,27.66
2022-08-17T13:31:24.137Z,27.17
2022-08-17T13:34:44.541Z,27.14
2022-08-17T13:38:02.811Z,25.63
2022-08-17T13:41:07.605Z,25.08
2022-08-17T13:44:32.730Z,25.47
2022-08-17T13:47:35.692Z,25.18
2022-08-17T13:50:42.172Z,24.63
2022-08-17T13:54:02.847Z,23.26
2022-08-17T13:57:08.390Z,24.60
2022-08-17T14:00:19.533Z,25.09
2022-08-17T14:03:22.296Z,25.60
2022-08-17T14:06:51.551Z,25.69
2022-08-17T14:09:54.238Z,26.29
2022-08-17T14:12:58.534Z,26.73
2022-08-17T14:16:02.424Z,25.88
2022-08-17T14:19:06.042Z,24.98
2022-08-17T14:22:17.536Z,25.56
2022-08-17T14:25:22.849Z,26.62
2022-08-17T14:28:27.881Z,26.23
2022-08-17T14:31:35.360Z,25.77
2022-08-17T14:34:40.170Z,25.11
2022-08-17T14:37:44.941Z,25.24
2022-08-17T14:40:49.681Z,25.10
2022-08-17T14:43:54.106Z,25.23
2022-08-17T14:46:57.011Z,25.33
2022-08-17T14:50:01.300Z,25.31
2022-08-17T14:53:05.450Z,26.09
2022-08-17T14:56:09.116Z,26.71
2022-08-17T14:59:13.306Z,25.38
2022-08-17T15:02:16.397Z,25.83
2022-08-17T15:05:19.237Z,26.33
2022-08-17T15:08:21.867Z,27.36
2022-08-17T15:11:24.747Z,26.55
2022-08-17T15:14:29.078Z,27.24
2022-08-17T15:17:43.788Z,28.24
2022-08-17T15:20:50.034Z,30.01
2022-08-17T15:23:52.712Z,30.35
2022-08-17T15:26:55.358Z,29.44
2022-08-17T15:29:59.507Z,28.71
2022-08-17T15:33:03.298Z,28.05
2022-08-17T15:36:08.321Z,29.43
2022-08-17T15:39:10.993Z,29.16
2022-08-17T15:42:14.731Z,29.95
2022-08-17T15:45:24.532Z,30.75
2022-08-17T15:48:40.772Z,30.80
2022-08-17T15:51:43.855Z,30.15
2022-08-17T15:54:51.160Z,29.73
2022-08-17T15:57:54.047Z,28.48
2022-08-17T16:01:16.570Z,27.60
2022-08-17T16:04:30.184Z,28.15
2022-08-17T16:07:34.342Z,28.70
2022-08-17T16:10:37.062Z,27.24
2022-08-17T16:13:40.643Z,27.37
2022-08-17T16:16:44.659Z,27.41
2022-08-17T16:19:47.694Z,28.57
2022-08-17T16:22:51.445Z,27.97
2022-08-17T16:25:54.624Z,28.83
2022-08-17T16:28:58.681Z,28.84
2022-08-17T16:32:12.948Z,28.77
2022-08-17T16:35:18.283Z,29.11
2022-08-17T16:38:22.203Z,29.96
2022-08-17T16:41:41.651Z,30.20
2022-08-17T16:44:44.275Z,29.99
2022-08-17T16:47:50.160Z,30.33
2022-08-17T16:50:58.573Z,30.56
2022-08-17T16:54:08.472Z,31.54
2022-08-17T16:57:11.209Z,32.74
2022-08-17T17:00:16.177Z,33.00
2022-08-17T17:03:22.695Z,34.52
2022-08-17T17:06:32.283Z,34.62
2022-08-17T17:09:39.139Z,35.36
2022-08-17T17:13:03.931Z,34.47
2022-08-17T17:16:18.342Z,35.11
2022-08-17T17:19:34.356Z,35.62
2022-08-17T17:22:45.570Z,36.59
2022-08-17T17:25:59.309Z,36.99
2022-08-17T17:29:15.072Z,35.80
2022-08-17T17:32:26.166Z,36.68
2022-08-17T17:35:35.403Z,37.23
2022-08-17T17:38:43.837Z,35.83
2022-08-17T17:41:50.199Z,36.78
2022-08-17T17:45:00.914Z,36.62
2022-08-17T17:48:03.676Z,37.43
2022-08-17T17:52:06.681Z,37.43
2022-08-17T17:54:58.293Z,38.85
2022-08-17T17:58:13.302Z,38.67
2022-08-17T18:01:29.577Z,38.27
2022-08-17T18:04:41.313Z,38.33
2022-08-17T18:07:50.395Z,39.19
2022-08-17T18:11:02.174Z,39.31
2022-08-17T18:14:21.082Z,40.36
2022-08-17T18:17:24.002Z,39.80
2022-08-17T18:20:36.031Z,39.83
2022-08-17T18:23:54.556Z,39.59
2022-08-17T18:26:59.220Z,40.99
2022-08-17T18:30:09.056Z,41.25
2022-08-17T18:33:24.671Z,41.08
2022-08-17T18:36:29.936Z,39.82
2022-08-17T18:39:34.231Z,40.13
2022-08-17T18:42:38.647Z,40.12
2022-08-17T18:45:45.708Z,40.71
2022-08-17T18:48:54.992Z,40.73
2022-08-17T18:52:15.164Z,41.66
2022-08-17T18:55:23.859Z,41.20
2022-08-17T18:58:26.876Z,40.98
2022-08-17T19:01:52.166Z,40.12
2022-08-17T19:05:07.330Z,40.71
2022-08-17T19:08:20.563Z,40.23
2022-08-17T19:11:29.663Z,40.49
2022-08-17T19:14:32.722Z,41.17
2022-08-17T19:17:45.566Z,41.93
2022-08-17T19:20:56.462Z,42.07
2022-08-17T19:24:06.107Z,41.11
2022-08-17T19:27:15.922Z,40.63
2022-08-17T19:30:21.317Z,40.33
2022-08-17T19:33:24.647Z,39.99
2022-08-17T19:36:42.150Z,39.94
2022-08-17T19:40:06.127Z,40.54
2022-08-17T19:43:22.528Z,40.68
2022-08-17T19:46:36.365Z,40.94
2022-08-17T19:49:50.789Z,42.14
2022-08-17T19:53:00.446Z,42.63
2022-08-17T19:56:09.331Z,42.34
2022-08-17T19:59:21.156Z,43.48
2022-08-17T20:02:34.747Z,44.07
2022-08-17T20:06:01.389Z,43.87
2022-08-17T20:09:14.962Z,42.48
2022-08-17T20:12:21.102Z,43.08
2022-08-17T20:15:28.203Z,42.49
2022-08-17T20:18:37.799Z,42.21
2022-08-17T20:21:46.998Z,42.66
2022-08-17T20:24:55.402Z,42.62
2022-08-17T20:28:05.797Z,42.66
2022-08-17T20:31:46.122Z,43.01
2022-08-17T20:34:49.279Z,42.97
2022-08-17T20:38:02.259Z,43.21
2022-08-17T20:41:13.512Z,43.08
2022-08-17T20:44:32.936Z,43.96
2022-08-17T20:48:00.838Z,43.79
2022-08-17T20:51:30.593Z,44.62
2022-08-17T20:54:47.750Z,45.08
2022-08-17T20:57:50.656Z,44.97
2022-08-17T21:01:14.245Z,45.17
2022-08-17T21:04:47.500Z,45.67
2022-08-17T21:07:58.096Z,46.69
2022-08-17T21:11:16.058Z,46.68
2022-08-17T21:14:29.653Z,47.50
2022-08-17T21:17:41.816Z,47.23
2022-08-17T21:21:02.530Z,47.35
2022-08-17T21:24:16.934Z,47.96
2022-08-17T21:27:35.669Z,48.49
2022-08-17T21:30:49.961Z,48.62
2022-08-17T21:34:28.941Z,48.98
2022-08-17T21:37:39.714Z,48.74
2022-08-17T21:40:47.009Z,49.15
2022-08-17T21:43:52.592Z,49.34
2022-08-17T21:46:55.301Z,49.53
2022-08-17T21:50:17.251Z,49.73
2022-08-17T21:53:32.221Z,50.40
2022-08-17T21:56:39.395Z,50.60
2022-08-17T21:59:44.265Z,50.76
2022-08-17T22:02:56.228Z,50.75
2022-08-17T22:05:58.943Z,51.09
2022-08-17T22:09:08.111Z,51.18
2022-08-17T22:12:13.463Z,51.57
2022-08-17T22:15:20.412Z,51.76
2022-08-17T22:18:29.049Z,51.57
2022-08-17T22:21:31.893Z,51.73
2022-08-17T22:24:36.785Z,51.87
2022-08-17T22:27:49.859Z,51.99
2022-08-17T22:31:02.112Z,52.32
2022-08-17T22:34:13.315Z,52.24
2022-08-17T22:37:27.492Z,52.50
2022-08-17T22:40:35.282Z,52.46
2022-08-17T22:43:44.816Z,53.10
2022-08-17T22:46:55.369Z,52.75
2022-08-17T22:50:00.383Z,53.35
2022-08-17T22:53:31.072Z,53.51
2022-08-17T22:56:52.644Z,53.86
2022-08-17T22:59:57.644Z,53.80
2022-08-17T23:03:22.735Z,53.78
2022-08-17T23:06:25.817Z,53.83
2022-08-17T23:09:31.105Z,53.80
2022-08-17T23:12:39.593Z,54.08
2022-08-17T23:15:43.132Z,53.87
2022-08-17T23:18:49.287Z,54.07
2022-08-17T23:21:55.318Z,54.20
2022-08-17T23:24:58.628Z,54.38
2022-08-17T23:28:05.338Z,54.58
2022-08-17T23:31:09.843Z,54.57
2022-08-17T23:34:14.916Z,54.96
2022-08-17T23:37:19.144Z,54.80
2022-08-17T23:40:22.485Z,54.87
2022-08-17T23:43:28.191Z,54.95
2022-08-17T23:46:31.890Z,54.87
2022-08-17T23:49:36.100Z,55.15
2022-08-17T23:52:41.433Z,55.39
2022-08-17T23:55:44.042Z,55.54
2022-08-17T23:58:48.168Z,55.54
